Time;durP1;ratioP1;P1;durP2;ratioP2;P2;SDS_P1;SDS_P2;PMS_P1;PMS_P2;Temp;Humidity;BMP_temperature;BMP_pressure;BME280_temperature;BME280_humidity;BME280_pressure;Samples;Min_cycle;Max_cycle;Signal;HPM_P1;HPM_P2
2020/04/19 00:00:37;;;;;;;21;14.8;;;;;;;12.9;100;94990.12;;;;
2020/04/19 00:01:40;;;;;;;21;14.8;;;;;;;12.9;100;94990.12;;;;
2020/04/19 00:02:40;;;;;;;17.1;14.8;;;;;;;12.94;100;94991.66;;;;
2020/04/19 00:03:41;;;;;;;17.1;14.8;;;;;;;12.94;100;94991.66;;;;
2020/04/19 00:04:41;;;;;;;16.95;15.15;;;;;;;12.98;100;94998.74;;;;
2020/04/19 00:05:42;;;;;;;16.95;15.15;;;;;;;12.98;100;94998.74;;;;
2020/04/19 00:06:42;;;;;;;16.95;15.15;;;;;;;12.98;100;94998.74;;;;
2020/04/19 00:07:43;;;;;;;16.5;14.8;;;;;;;13;100;94993.35;;;;
2020/04/19 00:08:43;;;;;;;16.5;14.8;;;;;;;13;100;94993.35;;;;
2020/04/19 00:09:44;;;;;;;16.5;14.8;;;;;;;13;100;94993.35;;;;
2020/04/19 00:10:44;;;;;;;16.4;14.7;;;;;;;13.03;100;94987.97;;;;
2020/04/19 00:11:45;;;;;;;16.4;14.7;;;;;;;13.03;100;94987.97;;;;
2020/04/19 00:12:45;;;;;;;14.45;12.9;;;;;;;13.05;100;94987.59;;;;
2020/04/19 00:13:46;;;;;;;14.45;12.9;;;;;;;13.05;100;94987.59;;;;
2020/04/19 00:14:46;;;;;;;14.45;12.9;;;;;;;13.05;100;94987.59;;;;
2020/04/19 00:15:47;;;;;;;13;11.8;;;;;;;13.07;100;94989.92;;;;
2020/04/19 00:16:47;;;;;;;13;11.8;;;;;;;13.07;100;94989.92;;;;
2020/04/19 00:17:48;;;;;;;13.8;12.4;;;;;;;13.09;100;94994.13;;;;
2020/04/19 00:18:48;;;;;;;13.8;12.4;;;;;;;13.09;100;94994.13;;;;
2020/04/19 00:19:49;;;;;;;13.8;12.4;;;;;;;13.09;100;94994.13;;;;
2020/04/19 00:20:49;;;;;;;16.9;12.35;;;;;;;13.11;100;94993.34;;;;
2020/04/19 00:21:50;;;;;;;16.9;12.35;;;;;;;13.11;100;94993.34;;;;
2020/04/19 00:22:50;;;;;;;16.9;12.35;;;;;;;13.11;100;94993.34;;;;
2020/04/19 00:23:51;;;;;;;14.15;12.4;;;;;;;13.11;100;95002.83;;;;
2020/04/19 00:24:51;;;;;;;14.15;12.4;;;;;;;13.11;100;95002.83;;;;
2020/04/19 00:25:51;;;;;;;13.65;12.25;;;;;;;13.12;100;95003.09;;;;
2020/04/19 00:26:52;;;;;;;13.65;12.25;;;;;;;13.12;100;95003.09;;;;
2020/04/19 00:27:52;;;;;;;13.65;12.25;;;;;;;13.12;100;95003.09;;;;
2020/04/19 00:28:53;;;;;;;13.65;12.25;;;;;;;13.13;100;94996.59;;;;
2020/04/19 00:29:53;;;;;;;13.65;12.25;;;;;;;13.13;100;94996.59;;;;
2020/04/19 00:30:54;;;;;;;13.65;12.25;;;;;;;13.13;100;94996.59;;;;
2020/04/19 00:31:54;;;;;;;15.05;12.05;;;;;;;13.16;100;95002.04;;;;
2020/04/19 00:32:55;;;;;;;15.05;12.05;;;;;;;13.16;100;95002.04;;;;
2020/04/19 00:33:55;;;;;;;14.1;11.3;;;;;;;13.18;100;95002.6;;;;
2020/04/19 00:34:55;;;;;;;14.1;11.3;;;;;;;13.18;100;95002.6;;;;
2020/04/19 00:35:56;;;;;;;14.1;11.3;;;;;;;13.18;100;95002.6;;;;
2020/04/19 00:36:56;;;;;;;13.5;11.25;;;;;;;13.2;100;95000.87;;;;
2020/04/19 00:37:57;;;;;;;13.5;11.25;;;;;;;13.2;100;95000.87;;;;
2020/04/19 00:38:57;;;;;;;14.95;11.35;;;;;;;13.22;100;95005.5;;;;
2020/04/19 00:39:57;;;;;;;14.95;11.35;;;;;;;13.22;100;95005.5;;;;
2020/04/19 00:40:58;;;;;;;14.95;11.35;;;;;;;13.22;100;95005.5;;;;
2020/04/19 00:41:58;;;;;;;13.1;11.4;;;;;;;13.25;100;95007.68;;;;
2020/04/19 00:42:59;;;;;;;13.1;11.4;;;;;;;13.25;100;95007.68;;;;
2020/04/19 00:43:59;;;;;;;13.1;11.4;;;;;;;13.25;100;95007.68;;;;
2020/04/19 00:45:00;;;;;;;11.65;10.55;;;;;;;13.27;100;95005.94;;;;
2020/04/19 00:46:00;;;;;;;11.65;10.55;;;;;;;13.27;100;95005.94;;;;
2020/04/19 00:47:01;;;;;;;13.7;10.85;;;;;;;13.31;100;95003.12;;;;
2020/04/19 00:48:01;;;;;;;13.7;10.85;;;;;;;13.31;100;95003.12;;;;
2020/04/19 00:49:02;;;;;;;13.7;10.85;;;;;;;13.31;100;95003.12;;;;
2020/04/19 00:50:03;;;;;;;12.55;11.25;;;;;;;13.33;100;95001.37;;;;
2020/04/19 00:51:04;;;;;;;12.55;11.25;;;;;;;13.33;100;95001.37;;;;
2020/04/19 00:52:04;;;;;;;13.25;10.3;;;;;;;13.37;100;95001.11;;;;
2020/04/19 00:53:05;;;;;;;13.25;10.3;;;;;;;13.37;100;95001.11;;;;
2020/04/19 00:54:05;;;;;;;13.25;10.3;;;;;;;13.37;100;95001.11;;;;
2020/04/19 00:55:06;;;;;;;11.85;10.4;;;;;;;13.4;100;94998.85;;;;
2020/04/19 00:56:06;;;;;;;11.85;10.4;;;;;;;13.4;100;94998.85;;;;
2020/04/19 00:57:07;;;;;;;11.85;10.4;;;;;;;13.4;100;94998.85;;;;
2020/04/19 00:58:07;;;;;;;10.6;9.5;;;;;;;13.43;100;95008.22;;;;
2020/04/19 00:59:08;;;;;;;10.6;9.5;;;;;;;13.43;100;95008.22;;;;
2020/04/19 01:00:44;;;;;;;11.2;9.4;;;;;;;13.46;100;95001.73;;;;
2020/04/19 01:02:24;;;;;;;11.2;9.4;;;;;;;13.46;100;95001.73;;;;
2020/04/19 01:03:35;;;;;;;11.55;9.550001;;;;;;;13.49;100;95007.98;;;;
2020/04/19 01:04:42;;;;;;;11.55;9.550001;;;;;;;13.49;100;95007.98;;;;
2020/04/19 01:05:49;;;;;;;12.65;9.35;;;;;;;13.53;99.96484;94999.73;;;;
2020/04/19 01:06:56;;;;;;;12.65;9.35;;;;;;;13.53;99.96484;94999.73;;;;
2020/04/19 01:08:04;;;;;;;10.6;8.949999;;;;;;;13.56;99.55371;94996.94;;;;
2020/04/19 01:09:05;;;;;;;10.6;8.949999;;;;;;;13.56;99.55371;94996.94;;;;
2020/04/19 01:11:13;;;;;;;10.6;8.949999;;;;;;;13.56;99.55371;94996.94;;;;
2020/04/19 01:12:14;;;;;;;11.8;9.099998;;;;;;;13.59;99.22852;94989.2;;;;
2020/04/19 01:13:15;;;;;;;9.299999;8.4;;;;;;;13.61;98.7832;94985.69;;;;
2020/04/19 01:14:16;;;;;;;9.299999;8.4;;;;;;;13.61;98.7832;94985.69;;;;
2020/04/19 01:15:16;;;;;;;9.299999;8.4;;;;;;;13.61;98.7832;94985.69;;;;
2020/04/19 01:16:17;;;;;;;12.15;9.199999;;;;;;;13.62;98.59277;94988.67;;;;
2020/04/19 01:17:17;;;;;;;12.15;9.199999;;;;;;;13.62;98.59277;94988.67;;;;
2020/04/19 01:18:18;;;;;;;12.15;9.199999;;;;;;;13.62;98.59277;94988.67;;;;
2020/04/19 01:19:18;;;;;;;10.3;8.250001;;;;;;;13.62;98.33887;94989.9;;;;
2020/04/19 01:20:19;;;;;;;10.3;8.250001;;;;;;;13.62;98.33887;94989.9;;;;
2020/04/19 01:21:20;;;;;;;9.65;8.65;;;;;;;13.62;98.13281;95005.36;;;;
2020/04/19 01:22:20;;;;;;;9.65;8.65;;;;;;;13.62;98.13281;95005.36;;;;
2020/04/19 01:23:21;;;;;;;9.65;8.65;;;;;;;13.62;98.13281;95005.36;;;;
2020/04/19 01:24:21;;;;;;;9.650002;8.699999;;;;;;;13.6;97.92773;95002.91;;;;
2020/04/19 01:25:22;;;;;;;9.650002;8.699999;;;;;;;13.6;97.92773;95002.91;;;;
2020/04/19 01:26:22;;;;;;;9.650002;8.699999;;;;;;;13.6;97.92773;95002.91;;;;
2020/04/19 01:27:23;;;;;;;11.1;8.5;;;;;;;13.57;97.91992;95004.92;;;;
2020/04/19 01:28:24;;;;;;;11.1;8.5;;;;;;;13.57;97.91992;95004.92;;;;
2020/04/19 01:29:24;;;;;;;10.65;8.549999;;;;;;;13.52;97.7168;95015.63;;;;
2020/04/19 01:30:25;;;;;;;10.65;8.549999;;;;;;;13.52;97.7168;95015.63;;;;
2020/04/19 01:31:25;;;;;;;10.65;8.549999;;;;;;;13.52;97.7168;95015.63;;;;
2020/04/19 01:32:26;;;;;;;10.85;8.550001;;;;;;;13.47;97.69336;95009.34;;;;
2020/04/19 01:33:26;;;;;;;10.85;8.550001;;;;;;;13.47;97.69336;95009.34;;;;
2020/04/19 01:34:27;;;;;;;9.35;8.399999;;;;;;;13.42;97.76855;95017.42;;;;
2020/04/19 01:35:27;;;;;;;9.35;8.399999;;;;;;;13.42;97.76855;95017.42;;;;
2020/04/19 01:36:27;;;;;;;9.35;8.399999;;;;;;;13.42;97.76855;95017.42;;;;
2020/04/19 01:37:28;;;;;;;10.75;8.399999;;;;;;;13.38;97.81348;95015.39;;;;
2020/04/19 01:38:28;;;;;;;10.75;8.399999;;;;;;;13.38;97.81348;95015.39;;;;
2020/04/19 01:39:29;;;;;;;10.75;8.399999;;;;;;;13.38;97.81348;95015.39;;;;
2020/04/19 01:40:29;;;;;;;9.799999;8.5;;;;;;;13.35;97.80762;95023.08;;;;
2020/04/19 01:41:29;;;;;;;9.799999;8.5;;;;;;;13.35;97.80762;95023.08;;;;
2020/04/19 01:42:30;;;;;;;10.3;8.6;;;;;;;13.33;98.00391;95025.37;;;;
2020/04/19 01:43:30;;;;;;;10.3;8.6;;;;;;;13.33;98.00391;95025.37;;;;
2020/04/19 01:44:31;;;;;;;10.3;8.6;;;;;;;13.33;98.00391;95025.37;;;;
2020/04/19 01:45:36;;;;;;;9.5;8.3;;;;;;;13.3;97.96777;95025.34;;;;
2020/04/19 01:46:47;;;;;;;9.5;8.3;;;;;;;13.3;97.96777;95025.34;;;;
2020/04/19 01:47:54;;;;;;;10.15;8.65;;;;;;;13.29;98.10254;95020.59;;;;
2020/04/19 01:54:05;;;;;;;9.15;8.099998;;;;;;;13.25;98.68262;95017.17;;;;
2020/04/19 01:55:06;;;;;;;9.15;8.099998;;;;;;;13.25;98.68262;95017.17;;;;
2020/04/19 01:56:06;;;;;;;9.849999;8.599999;;;;;;;13.23;98.53906;95013.48;;;;
2020/04/19 01:57:07;;;;;;;9.849999;8.599999;;;;;;;13.23;98.53906;95013.48;;;;
2020/04/19 01:58:07;;;;;;;9.849999;8.599999;;;;;;;13.23;98.53906;95013.48;;;;
2020/04/19 01:59:08;;;;;;;9.250001;8.299999;;;;;;;13.18;98.64453;95010.32;;;;
2020/04/19 02:00:08;;;;;;;9.250001;8.299999;;;;;;;13.18;98.64453;95010.32;;;;
2020/04/19 02:01:09;;;;;;;11.75;8.850001;;;;;;;13.11;98.67188;95011.49;;;;
2020/04/19 02:02:09;;;;;;;11.75;8.850001;;;;;;;13.11;98.67188;95011.49;;;;
2020/04/19 02:03:10;;;;;;;11.75;8.850001;;;;;;;13.11;98.67188;95011.49;;;;
2020/04/19 02:04:12;;;;;;;10.05;8;;;;;;;13.03;98.8584;95008.7;;;;
2020/04/19 02:05:12;;;;;;;10.05;8;;;;;;;13.03;98.8584;95008.7;;;;
2020/04/19 02:06:13;;;;;;;10.05;8;;;;;;;13.03;98.8584;95008.7;;;;
2020/04/19 02:07:13;;;;;;;9.25;7.9;;;;;;;12.96;99.02246;95003.59;;;;
2020/04/19 02:08:13;;;;;;;9.25;7.9;;;;;;;12.96;99.02246;95003.59;;;;
2020/04/19 02:09:14;;;;;;;10.5;8.299999;;;;;;;12.88;99.37988;95006.23;;;;
2020/04/19 02:10:15;;;;;;;10.5;8.299999;;;;;;;12.88;99.37988;95006.23;;;;
2020/04/19 02:11:15;;;;;;;10.5;8.299999;;;;;;;12.88;99.37988;95006.23;;;;
2020/04/19 02:12:15;;;;;;;10.45;8.25;;;;;;;12.82;99.59961;95013.22;;;;
2020/04/19 02:13:16;;;;;;;10.45;8.25;;;;;;;12.82;99.59961;95013.22;;;;
2020/04/19 02:14:16;;;;;;;10.45;8.25;;;;;;;12.82;99.59961;95013.22;;;;
2020/04/19 02:15:17;;;;;;;9.549999;8.650002;;;;;;;12.75;99.93652;95014.37;;;;
2020/04/19 02:16:18;;;;;;;9.549999;8.650002;;;;;;;12.75;99.93652;95014.37;;;;
2020/04/19 02:17:18;;;;;;;9.6;8.55;;;;;;;12.69;100;95012.27;;;;
2020/04/19 02:18:18;;;;;;;9.6;8.55;;;;;;;12.69;100;95012.27;;;;
2020/04/19 02:19:19;;;;;;;9.6;8.55;;;;;;;12.69;100;95012.27;;;;
2020/04/19 02:20:19;;;;;;;11;8.75;;;;;;;12.62;100;95016.13;;;;
2020/04/19 02:21:20;;;;;;;11;8.75;;;;;;;12.62;100;95016.13;;;;
2020/04/19 02:22:20;;;;;;;9.200001;7.95;;;;;;;12.57;100;95016.5;;;;
2020/04/19 02:23:21;;;;;;;9.200001;7.95;;;;;;;12.57;100;95016.5;;;;
2020/04/19 02:24:21;;;;;;;9.200001;7.95;;;;;;;12.57;100;95016.5;;;;
2020/04/19 02:25:22;;;;;;;10.8;8.1;;;;;;;12.54;100;95021.04;;;;
2020/04/19 02:26:22;;;;;;;10.8;8.1;;;;;;;12.54;100;95021.04;;;;
2020/04/19 02:27:23;;;;;;;10.8;8.1;;;;;;;12.54;100;95021.04;;;;
2020/04/19 02:28:23;;;;;;;10.8;8.1;;;;;;;12.54;100;95021.04;;;;
2020/04/19 02:29:23;;;;;;;10.8;8.1;;;;;;;12.54;100;95021.04;;;;
2020/04/19 02:30:24;;;;;;;10.8;8.1;;;;;;;12.54;100;95021.04;;;;
2020/04/19 02:31:24;;;;;;;10.8;8.1;;;;;;;12.54;100;95021.04;;;;
2020/04/19 02:32:25;;;;;;;10.8;8.1;;;;;;;12.54;100;95021.04;;;;
2020/04/19 02:33:25;;;;;;;10.8;8.1;;;;;;;12.54;100;95021.04;;;;
2020/04/19 02:34:26;;;;;;;10.8;8.1;;;;;;;12.54;100;95021.04;;;;
2020/04/19 02:35:26;;;;;;;10.8;8.1;;;;;;;12.54;100;95021.04;;;;
2020/04/19 02:36:27;;;;;;;10.4;8.35;;;;;;;12.09;100;95022.83;;;;
2020/04/19 02:37:27;;;;;;;10.4;8.35;;;;;;;12.09;100;95022.83;;;;
2020/04/19 02:38:28;;;;;;;9.049999;8.049999;;;;;;;12.05;100;95034.28;;;;
2020/04/19 02:39:28;;;;;;;9.049999;8.049999;;;;;;;12.05;100;95034.28;;;;
2020/04/19 02:40:29;;;;;;;9.049999;8.049999;;;;;;;12.05;100;95034.28;;;;
2020/04/19 02:41:29;;;;;;;11.6;8.450001;;;;;;;12.08;100;95029.29;;;;
2020/04/19 02:42:30;;;;;;;11.6;8.450001;;;;;;;12.08;100;95029.29;;;;
2020/04/19 02:43:30;;;;;;;11.35;8.6;;;;;;;12.1;100;95020.81;;;;
2020/04/19 02:44:30;;;;;;;11.35;8.6;;;;;;;12.1;100;95020.81;;;;
2020/04/19 02:45:31;;;;;;;11.35;8.6;;;;;;;12.1;100;95020.81;;;;
2020/04/19 02:46:31;;;;;;;11.35;8.6;;;;;;;12.1;100;95020.81;;;;
2020/04/19 02:47:32;;;;;;;11.35;8.6;;;;;;;12.1;100;95020.81;;;;
2020/04/19 02:48:32;;;;;;;11.35;8.6;;;;;;;12.1;100;95020.81;;;;
2020/04/19 02:49:33;;;;;;;11.35;8.6;;;;;;;12.1;100;95020.81;;;;
2020/04/19 02:50:33;;;;;;;11.35;8.6;;;;;;;12.1;100;95020.81;;;;
2020/04/19 02:51:34;;;;;;;11.35;8.6;;;;;;;12.1;100;95020.81;;;;
2020/04/19 02:52:34;;;;;;;11.35;8.6;;;;;;;12.1;100;95020.81;;;;
2020/04/19 02:53:34;;;;;;;11.35;8.6;;;;;;;12.1;100;95020.81;;;;
2020/04/19 02:54:35;;;;;;;11.75;8.599999;;;;;;;11.74;100;95035.75;;;;
2020/04/19 02:55:35;;;;;;;11.75;8.599999;;;;;;;11.74;100;95035.75;;;;
2020/04/19 02:56:36;;;;;;;11.75;8.599999;;;;;;;11.74;100;95035.75;;;;
2020/04/19 02:57:36;;;;;;;11.05;8.650002;;;;;;;11.73;100;95037.32;;;;
2020/04/19 02:58:37;;;;;;;11.05;8.650002;;;;;;;11.73;100;95037.32;;;;
2020/04/19 02:59:37;;;;;;;9.799999;8.550001;;;;;;;11.77;100;95028.48;;;;
2020/04/19 03:00:38;;;;;;;9.799999;8.550001;;;;;;;11.77;100;95028.48;;;;
2020/04/19 03:01:38;;;;;;;9.799999;8.550001;;;;;;;11.77;100;95028.48;;;;
2020/04/19 03:02:39;;;;;;;10;8.950002;;;;;;;11.8;100;95029.32;;;;
2020/04/19 03:03:39;;;;;;;10;8.950002;;;;;;;11.8;100;95029.32;;;;
2020/04/19 03:04:40;;;;;;;10.6;8.950002;;;;;;;11.83;100;95027.6;;;;
2020/04/19 03:05:40;;;;;;;10.6;8.950002;;;;;;;11.83;100;95027.6;;;;
2020/04/19 03:06:40;;;;;;;10.6;8.950002;;;;;;;11.83;100;95027.6;;;;
2020/04/19 03:07:41;;;;;;;10.8;8.999998;;;;;;;11.83;100;95038.42;;;;
2020/04/19 03:08:41;;;;;;;10.8;8.999998;;;;;;;11.83;100;95038.42;;;;
2020/04/19 03:09:42;;;;;;;10.8;8.999998;;;;;;;11.83;100;95038.42;;;;
2020/04/19 03:10:42;;;;;;;10.8;8.999998;;;;;;;11.83;100;95038.42;;;;
2020/04/19 03:11:43;;;;;;;10.8;8.999998;;;;;;;11.83;100;95038.42;;;;
2020/04/19 03:12:43;;;;;;;10.8;8.999998;;;;;;;11.83;100;95038.42;;;;
2020/04/19 03:13:44;;;;;;;10.8;8.999998;;;;;;;11.83;100;95038.42;;;;
2020/04/19 03:14:44;;;;;;;10.8;8.999998;;;;;;;11.83;100;95038.42;;;;
2020/04/19 03:15:45;;;;;;;10.8;8.999998;;;;;;;11.83;100;95038.42;;;;
2020/04/19 03:16:45;;;;;;;10.8;8.999998;;;;;;;11.83;100;95038.42;;;;
2020/04/19 03:17:45;;;;;;;10.8;8.999998;;;;;;;11.83;100;95038.42;;;;
2020/04/19 03:18:46;;;;;;;9.4;8.4;;;;;;;11.35;100;95027.26;;;;
2020/04/19 03:19:46;;;;;;;9.4;8.4;;;;;;;11.35;100;95027.26;;;;
2020/04/19 03:20:47;;;;;;;11.75;8.9;;;;;;;11.3;100;95038.94;;;;
2020/04/19 03:21:47;;;;;;;11.75;8.9;;;;;;;11.3;100;95038.94;;;;
2020/04/19 03:22:48;;;;;;;11.75;8.9;;;;;;;11.3;100;95038.94;;;;
2020/04/19 03:23:48;;;;;;;11.75;8.9;;;;;;;11.3;100;95038.94;;;;
2020/04/19 03:24:49;;;;;;;11.75;8.9;;;;;;;11.3;100;95038.94;;;;
2020/04/19 03:25:49;;;;;;;11.75;8.9;;;;;;;11.3;100;95038.94;;;;
2020/04/19 03:26:50;;;;;;;11.75;8.9;;;;;;;11.3;100;95038.94;;;;
2020/04/19 03:27:50;;;;;;;11.75;8.9;;;;;;;11.3;100;95038.94;;;;
2020/04/19 03:28:51;;;;;;;11.75;8.9;;;;;;;11.3;100;95038.94;;;;
2020/04/19 03:29:51;;;;;;;11.75;8.9;;;;;;;11.3;100;95038.94;;;;
2020/04/19 03:30:52;;;;;;;11.75;8.9;;;;;;;11.3;100;95038.94;;;;
2020/04/19 03:31:52;;;;;;;11.9;9.4;;;;;;;10.96;100;95037.17;;;;
2020/04/19 03:32:53;;;;;;;11.9;9.4;;;;;;;10.96;100;95037.17;;;;
2020/04/19 03:33:53;;;;;;;10.8;9.5;;;;;;;10.96;100;95035.94;;;;
2020/04/19 03:34:54;;;;;;;10.8;9.5;;;;;;;10.96;100;95035.94;;;;
2020/04/19 03:35:54;;;;;;;10.8;9.5;;;;;;;10.96;100;95035.94;;;;
2020/04/19 03:36:54;;;;;;;11.75;9.550001;;;;;;;11;100;95030.35;;;;
2020/04/19 03:37:55;;;;;;;11.75;9.550001;;;;;;;11;100;95030.35;;;;
2020/04/19 03:38:55;;;;;;;11.75;9.550001;;;;;;;11;100;95030.35;;;;
2020/04/19 03:39:56;;;;;;;12.1;10.2;;;;;;;11.04;100;95030.14;;;;
2020/04/19 03:40:56;;;;;;;12.1;10.2;;;;;;;11.04;100;95030.14;;;;
2020/04/19 03:41:57;;;;;;;12.1;10.2;;;;;;;11.04;100;95030.14;;;;
2020/04/19 03:42:57;;;;;;;12.1;10.2;;;;;;;11.04;100;95030.14;;;;
2020/04/19 03:43:58;;;;;;;12.1;10.2;;;;;;;11.04;100;95030.14;;;;
2020/04/19 03:44:59;;;;;;;12.1;10.2;;;;;;;11.04;100;95030.14;;;;
2020/04/19 03:45:59;;;;;;;12.1;10.2;;;;;;;11.04;100;95030.14;;;;
2020/04/19 03:47:00;;;;;;;12.1;10.2;;;;;;;11.04;100;95030.14;;;;
2020/04/19 03:48:00;;;;;;;12.1;10.2;;;;;;;11.04;100;95030.14;;;;
2020/04/19 03:49:01;;;;;;;12.1;10.2;;;;;;;11.04;100;95030.14;;;;
2020/04/19 03:50:01;;;;;;;10.5;9.5;;;;;;;10.79;100;95028.36;;;;
2020/04/19 03:51:02;;;;;;;10.5;9.5;;;;;;;10.79;100;95028.36;;;;
2020/04/19 03:52:03;;;;;;;10.5;9.5;;;;;;;10.79;100;95028.36;;;;
2020/04/19 03:53:03;;;;;;;13.6;9.899999;;;;;;;10.81;100;95026.65;;;;
2020/04/19 03:54:04;;;;;;;13.6;9.899999;;;;;;;10.81;100;95026.65;;;;
2020/04/19 03:55:04;;;;;;;13.6;9.899999;;;;;;;10.81;100;95026.65;;;;
2020/04/19 03:56:05;;;;;;;13.6;9.899999;;;;;;;10.81;100;95026.65;;;;
2020/04/19 03:57:05;;;;;;;13.6;9.899999;;;;;;;10.81;100;95026.65;;;;
2020/04/19 03:58:06;;;;;;;13.6;9.899999;;;;;;;10.81;100;95026.65;;;;
2020/04/19 03:59:06;;;;;;;13.6;9.899999;;;;;;;10.81;100;95026.65;;;;
2020/04/19 04:00:07;;;;;;;13.6;9.899999;;;;;;;10.81;100;95026.65;;;;
2020/04/19 04:01:07;;;;;;;13.6;9.899999;;;;;;;10.81;100;95026.65;;;;
2020/04/19 04:02:08;;;;;;;13.6;9.899999;;;;;;;10.81;100;95026.65;;;;
2020/04/19 04:03:08;;;;;;;10.95;9.749999;;;;;;;10.65;100;95033.22;;;;
2020/04/19 04:04:09;;;;;;;10.95;9.749999;;;;;;;10.65;100;95033.22;;;;
2020/04/19 04:05:09;;;;;;;10.95;9.749999;;;;;;;10.65;100;95033.22;;;;
2020/04/19 04:06:10;;;;;;;12.1;10;;;;;;;10.68;100;95037.33;;;;
2020/04/19 04:07:11;;;;;;;12.1;10;;;;;;;10.68;100;95037.33;;;;
2020/04/19 04:08:11;;;;;;;12.1;10;;;;;;;10.68;100;95037.33;;;;
2020/04/19 04:09:12;;;;;;;12.1;10;;;;;;;10.68;100;95037.33;;;;
2020/04/19 04:10:12;;;;;;;12.1;10;;;;;;;10.68;100;95037.33;;;;
2020/04/19 04:11:13;;;;;;;12.1;10;;;;;;;10.68;100;95037.33;;;;
2020/04/19 04:12:13;;;;;;;12.1;10;;;;;;;10.68;100;95037.33;;;;
2020/04/19 04:13:15;;;;;;;12.1;10;;;;;;;10.68;100;95037.33;;;;
2020/04/19 04:14:16;;;;;;;12.1;10;;;;;;;10.68;100;95037.33;;;;
2020/04/19 04:15:17;;;;;;;12.1;10;;;;;;;10.68;100;95037.33;;;;
2020/04/19 04:16:17;;;;;;;11.7;9.950001;;;;;;;10.58;100;95031.62;;;;
2020/04/19 04:17:18;;;;;;;11.7;9.950001;;;;;;;10.58;100;95031.62;;;;
2020/04/19 04:18:18;;;;;;;11.7;9.950001;;;;;;;10.58;100;95031.62;;;;
2020/04/19 04:19:19;;;;;;;11.7;9.950001;;;;;;;10.58;100;95031.62;;;;
2020/04/19 04:20:19;;;;;;;11.7;9.950001;;;;;;;10.58;100;95031.62;;;;
2020/04/19 04:21:20;;;;;;;11.7;9.950001;;;;;;;10.58;100;95031.62;;;;
2020/04/19 04:22:21;;;;;;;11.7;9.950001;;;;;;;10.58;100;95031.62;;;;
2020/04/19 04:23:21;;;;;;;11.7;9.950001;;;;;;;10.58;100;95031.62;;;;
2020/04/19 04:24:22;;;;;;;11.7;9.950001;;;;;;;10.58;100;95031.62;;;;
2020/04/19 04:25:22;;;;;;;11.7;9.950001;;;;;;;10.58;100;95031.62;;;;
2020/04/19 04:26:22;;;;;;;11.7;9.950001;;;;;;;10.58;100;95031.62;;;;
2020/04/19 04:27:23;;;;;;;13;10.1;;;;;;;10.55;100;95018.61;;;;
2020/04/19 04:28:23;;;;;;;13;10.1;;;;;;;10.55;100;95018.61;;;;
2020/04/19 04:29:24;;;;;;;13;10.1;;;;;;;10.55;100;95018.61;;;;
2020/04/19 04:30:24;;;;;;;13;10.1;;;;;;;10.55;100;95018.61;;;;
2020/04/19 04:31:25;;;;;;;13;10.1;;;;;;;10.55;100;95018.61;;;;
2020/04/19 04:32:26;;;;;;;13;10.1;;;;;;;10.55;100;95018.61;;;;
2020/04/19 04:33:28;;;;;;;13;10.1;;;;;;;10.55;100;95018.61;;;;
2020/04/19 04:34:29;;;;;;;13;10.1;;;;;;;10.55;100;95018.61;;;;
2020/04/19 04:35:33;;;;;;;13;10.1;;;;;;;10.55;100;95018.61;;;;
2020/04/19 04:36:34;;;;;;;13;10.1;;;;;;;10.55;100;95018.61;;;;
2020/04/19 04:37:35;;;;;;;11.7;10.15;;;;;;;10.52;100;95018.7;;;;
2020/04/19 04:38:45;;;;;;;11.7;10.15;;;;;;;10.52;100;95018.7;;;;
2020/04/19 04:39:59;;;;;;;11.7;10.15;;;;;;;10.52;100;95018.7;;;;
2020/04/19 04:41:01;;;;;;;12.9;10.85;;;;;;;10.61;100;95020.47;;;;
2020/04/19 04:42:07;;;;;;;12.9;10.85;;;;;;;10.61;100;95020.47;;;;
2020/04/19 04:43:08;;;;;;;12.9;10.85;;;;;;;10.61;100;95020.47;;;;
2020/04/19 04:44:11;;;;;;;12.9;10.85;;;;;;;10.61;100;95020.47;;;;
2020/04/19 04:45:11;;;;;;;12.9;10.85;;;;;;;10.61;100;95020.47;;;;
2020/04/19 04:46:12;;;;;;;12.9;10.85;;;;;;;10.61;100;95020.47;;;;
2020/04/19 04:47:13;;;;;;;12.9;10.85;;;;;;;10.61;100;95020.47;;;;
2020/04/19 04:48:13;;;;;;;12.9;10.85;;;;;;;10.61;100;95020.47;;;;
2020/04/19 04:49:14;;;;;;;12.9;10.85;;;;;;;10.61;100;95020.47;;;;
2020/04/19 04:50:14;;;;;;;12.9;10.85;;;;;;;10.61;100;95020.47;;;;
2020/04/19 04:51:15;;;;;;;10.4;9.299999;;;;;;;10.76;100;95030.06;;;;
2020/04/19 04:52:15;;;;;;;10.4;9.299999;;;;;;;10.76;100;95030.06;;;;
2020/04/19 04:53:17;;;;;;;10.15;9.15;;;;;;;10.86;100;95025.8;;;;
2020/04/19 04:54:17;;;;;;;10.15;9.15;;;;;;;10.86;100;95025.8;;;;
2020/04/19 04:55:17;;;;;;;10.15;9.15;;;;;;;10.86;100;95025.8;;;;
2020/04/19 04:56:18;;;;;;;10.15;9.15;;;;;;;10.86;100;95025.8;;;;
2020/04/19 04:57:18;;;;;;;10.15;9.15;;;;;;;10.86;100;95025.8;;;;
2020/04/19 04:58:19;;;;;;;10.15;9.15;;;;;;;10.86;100;95025.8;;;;
2020/04/19 04:59:19;;;;;;;10.15;9.15;;;;;;;10.86;100;95025.8;;;;
2020/04/19 05:00:20;;;;;;;10.15;9.15;;;;;;;10.86;100;95025.8;;;;
2020/04/19 05:01:20;;;;;;;10.15;9.15;;;;;;;10.86;100;95025.8;;;;
2020/04/19 05:02:21;;;;;;;10.15;9.15;;;;;;;10.86;100;95025.8;;;;
2020/04/19 05:03:21;;;;;;;10.15;9.15;;;;;;;10.86;100;95025.8;;;;
2020/04/19 05:04:22;;;;;;;11.15;9.200001;;;;;;;10.97;100;95029.9;;;;
2020/04/19 05:05:22;;;;;;;11.15;9.200001;;;;;;;10.97;100;95029.9;;;;
2020/04/19 05:06:22;;;;;;;11.15;9.200001;;;;;;;10.97;100;95029.9;;;;
2020/04/19 05:07:23;;;;;;;9.349999;8.400001;;;;;;;11.04;100;95029.63;;;;
2020/04/19 05:08:23;;;;;;;9.349999;8.400001;;;;;;;11.04;100;95029.63;;;;
2020/04/19 05:09:24;;;;;;;9.349999;8.400001;;;;;;;11.04;100;95029.63;;;;
2020/04/19 05:10:24;;;;;;;9.349999;8.400001;;;;;;;11.04;100;95029.63;;;;
2020/04/19 05:11:25;;;;;;;9.349999;8.400001;;;;;;;11.04;100;95029.63;;;;
2020/04/19 05:12:25;;;;;;;9.349999;8.400001;;;;;;;11.04;100;95029.63;;;;
2020/04/19 05:13:26;;;;;;;9.349999;8.400001;;;;;;;11.04;100;95029.63;;;;
2020/04/19 05:14:26;;;;;;;9.349999;8.400001;;;;;;;11.04;100;95029.63;;;;
2020/04/19 05:15:27;;;;;;;9.349999;8.400001;;;;;;;11.04;100;95029.63;;;;
2020/04/19 05:16:27;;;;;;;9.349999;8.400001;;;;;;;11.04;100;95029.63;;;;
2020/04/19 05:17:28;;;;;;;9.2;8.25;;;;;;;11.16;100;95024.95;;;;
2020/04/19 05:18:28;;;;;;;9.2;8.25;;;;;;;11.16;100;95024.95;;;;
2020/04/19 05:19:29;;;;;;;9.2;8.25;;;;;;;11.16;100;95024.95;;;;
2020/04/19 05:20:29;;;;;;;9.949999;8.600001;;;;;;;11.26;100;95017.55;;;;
2020/04/19 05:21:30;;;;;;;9.949999;8.600001;;;;;;;11.26;100;95017.55;;;;
2020/04/19 05:22:30;;;;;;;9.949999;8.600001;;;;;;;11.26;100;95017.55;;;;
2020/04/19 05:23:30;;;;;;;9.949999;8.600001;;;;;;;11.26;100;95017.55;;;;
2020/04/19 05:24:31;;;;;;;9.949999;8.600001;;;;;;;11.26;100;95017.55;;;;
2020/04/19 05:25:31;;;;;;;9.949999;8.600001;;;;;;;11.26;100;95017.55;;;;
2020/04/19 05:26:32;;;;;;;9.949999;8.600001;;;;;;;11.26;100;95017.55;;;;
2020/04/19 05:27:32;;;;;;;9.949999;8.600001;;;;;;;11.26;100;95017.55;;;;
2020/04/19 05:28:33;;;;;;;9.949999;8.600001;;;;;;;11.26;100;95017.55;;;;
2020/04/19 05:29:33;;;;;;;9.949999;8.600001;;;;;;;11.26;100;95017.55;;;;
2020/04/19 05:30:33;;;;;;;8.900001;7.95;;;;;;;11.49;100;95021.83;;;;
2020/04/19 05:31:34;;;;;;;8.900001;7.95;;;;;;;11.49;100;95021.83;;;;
2020/04/19 05:32:34;;;;;;;8.900001;7.95;;;;;;;11.49;100;95021.83;;;;
2020/04/19 05:33:35;;;;;;;8.75;7.85;;;;;;;11.62;100;95019.69;;;;
2020/04/19 05:34:35;;;;;;;8.75;7.85;;;;;;;11.62;100;95019.69;;;;
2020/04/19 05:35:36;;;;;;;8.75;7.85;;;;;;;11.62;100;95019.69;;;;
2020/04/19 05:36:36;;;;;;;8.75;7.85;;;;;;;11.62;100;95019.69;;;;
2020/04/19 05:37:37;;;;;;;8.75;7.85;;;;;;;11.62;100;95019.69;;;;
2020/04/19 05:38:37;;;;;;;8.75;7.85;;;;;;;11.62;100;95019.69;;;;
2020/04/19 05:39:37;;;;;;;8.75;7.85;;;;;;;11.62;100;95019.69;;;;
2020/04/19 05:40:38;;;;;;;8.75;7.85;;;;;;;11.62;100;95019.69;;;;
2020/04/19 05:41:38;;;;;;;8.75;7.85;;;;;;;11.62;100;95019.69;;;;
2020/04/19 05:42:39;;;;;;;8.75;7.85;;;;;;;11.62;100;95019.69;;;;
2020/04/19 05:43:39;;;;;;;9.049999;6.950001;;;;;;;11.97;100;95021.17;;;;
2020/04/19 05:44:40;;;;;;;9.049999;6.950001;;;;;;;11.97;100;95021.17;;;;
2020/04/19 05:45:40;;;;;;;9.049999;6.950001;;;;;;;11.97;100;95021.17;;;;
2020/04/19 05:46:41;;;;;;;8.200001;7.149999;;;;;;;12.12;100;95022.31;;;;
2020/04/19 05:47:41;;;;;;;8.200001;7.149999;;;;;;;12.12;100;95022.31;;;;
2020/04/19 05:48:41;;;;;;;8.200001;7.149999;;;;;;;12.12;100;95022.31;;;;
2020/04/19 05:49:42;;;;;;;8.200001;7.149999;;;;;;;12.12;100;95022.31;;;;
2020/04/19 05:50:42;;;;;;;8.200001;7.149999;;;;;;;12.12;100;95022.31;;;;
2020/04/19 05:51:43;;;;;;;8.200001;7.149999;;;;;;;12.12;100;95022.31;;;;
2020/04/19 05:52:43;;;;;;;8.200001;7.149999;;;;;;;12.12;100;95022.31;;;;
2020/04/19 05:53:44;;;;;;;8.200001;7.149999;;;;;;;12.12;100;95022.31;;;;
2020/04/19 05:54:44;;;;;;;8.200001;7.149999;;;;;;;12.12;100;95022.31;;;;
2020/04/19 05:55:45;;;;;;;8.200001;7.149999;;;;;;;12.12;100;95022.31;;;;
2020/04/19 05:56:45;;;;;;;8.200001;7.149999;;;;;;;12.12;100;95022.31;;;;
2020/04/19 05:58:24;;;;;;;8.65;6.450001;;;;;;;12.54;100;95023.35;;;;
2020/04/19 05:59:30;;;;;;;8.65;6.450001;;;;;;;12.54;100;95023.35;;;;
2020/04/19 06:01:45;;;;;;;7.85;5.75;;;;;;;12.71;100;95022.31;;;;
2020/04/19 06:04:30;;;;;;;7.85;5.75;;;;;;;12.71;100;95022.31;;;;
2020/04/19 06:05:37;;;;;;;7.85;5.75;;;;;;;12.71;100;95022.31;;;;